Archival Weather

Tokyo Intl

Tokyo, Japan (RJTT)

Report from: Tuesday, September 19, 2023 10:30 PM JST
Current time: Wednesday, December 6, 2023 4:07 PM JST

Current weather – Weather history – Daily summaries
Weather forecast

Temperature29.0°C (84.2°F)
Heat index33.7°C (92.7°F)
Dew point24.0°C (75.2°F)
Winds 11 kts (5.7 m/s, 12.7 mph) South-Southwest (200°)
Clouds Sky clear
Altimeter29.88 in.Hg (1012 mB)
Relative humidity75 %
Density altitude2,049 ft. (624 m)
Remarks Ceiling and visibility OK
No significant changes expected in the next two hours
Flight conditions Visual Meteorological Conditions
Raw dataRJTT 191330Z 20011KT CAVOK 29/24 Q1012 NOSIG
An error has occurred. This application may no longer respond until reloaded. Reload 🗙